createdAt,value
2022-12-17T00:01:03.908Z,2.20
2022-12-17T00:02:24.322Z,2.30
2022-12-17T00:03:44.768Z,2.40
2022-12-17T00:05:05.068Z,2.30
2022-12-17T00:06:25.559Z,2.10
2022-12-17T00:07:46.154Z,2.20
2022-12-17T00:09:06.623Z,2.10
2022-12-17T00:10:33.269Z,2.20
2022-12-17T00:11:53.729Z,2.10
2022-12-17T00:13:16.885Z,2.20
2022-12-17T00:14:37.401Z,2.20
2022-12-17T00:15:57.903Z,2.20
2022-12-17T00:17:19.372Z,2.20
2022-12-17T00:18:40.143Z,2.10
2022-12-17T00:20:00.643Z,2.20
2022-12-17T00:21:20.976Z,2.30
2022-12-17T00:22:41.563Z,2.20
2022-12-17T00:24:02.875Z,2.20
2022-12-17T00:25:24.102Z,2.30
2022-12-17T00:26:45.137Z,2.20
2022-12-17T00:28:05.712Z,2.10
2022-12-17T00:29:26.195Z,2.10
2022-12-17T00:30:46.748Z,2.10
2022-12-17T00:32:07.329Z,2.10
2022-12-17T00:33:30.488Z,2.30
2022-12-17T00:34:51.212Z,2.30
2022-12-17T00:36:12.129Z,2.20
2022-12-17T00:37:32.746Z,2.10
2022-12-17T00:38:53.268Z,2.10
2022-12-17T00:40:14.007Z,2.20
2022-12-17T00:41:34.491Z,2.20
2022-12-17T00:42:56.288Z,2.20
2022-12-17T00:44:22.015Z,2.20
2022-12-17T00:45:42.368Z,2.10
2022-12-17T00:47:02.866Z,2.00
2022-12-17T00:48:23.991Z,2.10
2022-12-17T00:49:56.177Z,2.10
2022-12-17T00:51:16.995Z,2.00
2022-12-17T00:52:37.420Z,2.10
2022-12-17T00:54:00.188Z,2.10
2022-12-17T00:55:20.775Z,2.00
2022-12-17T00:56:41.282Z,2.00
2022-12-17T00:58:01.944Z,2.00
2022-12-17T00:59:22.444Z,2.00
2022-12-17T01:00:43.043Z,2.10
2022-12-17T01:02:15.937Z,2.10
2022-12-17T01:03:51.065Z,2.20
2022-12-17T01:05:13.990Z,2.00
2022-12-17T01:06:34.296Z,2.00
2022-12-17T01:07:54.558Z,2.00
2022-12-17T01:09:17.143Z,2.10
2022-12-17T01:10:37.677Z,2.10
2022-12-17T01:11:58.448Z,2.10
2022-12-17T01:13:18.925Z,2.10
2022-12-17T01:14:39.341Z,2.10
2022-12-17T01:16:00.033Z,2.10
2022-12-17T01:17:32.091Z,2.00
2022-12-17T01:18:57.741Z,2.00
2022-12-17T01:20:19.259Z,2.10
2022-12-17T01:21:39.797Z,2.20
2022-12-17T01:23:00.296Z,2.20
2022-12-17T01:24:20.121Z,2.20
2022-12-17T01:25:40.525Z,2.30
2022-12-17T01:27:01.100Z,2.20
2022-12-17T01:28:21.992Z,2.20
2022-12-17T01:29:42.372Z,2.10
2022-12-17T01:31:02.761Z,2.20
2022-12-17T01:32:23.710Z,2.10
2022-12-17T01:33:44.144Z,2.20
2022-12-17T01:35:04.800Z,2.30
2022-12-17T01:36:26.739Z,2.20
2022-12-17T01:37:47.212Z,2.20
2022-12-17T01:39:07.643Z,2.20
2022-12-17T01:40:29.468Z,2.20
2022-12-17T01:41:49.929Z,2.20
2022-12-17T01:43:10.416Z,2.20
2022-12-17T01:45:06.082Z,2.10
2022-12-17T01:46:27.471Z,2.20
2022-12-17T01:47:50.872Z,2.20
2022-12-17T01:49:14.268Z,2.20
2022-12-17T01:50:36.167Z,2.10
2022-12-17T01:51:57.904Z,2.20
2022-12-17T01:53:21.148Z,2.10
2022-12-17T01:54:41.461Z,2.20
2022-12-17T01:56:02.256Z,2.00
2022-12-17T01:57:24.430Z,2.00
2022-12-17T01:58:45.187Z,2.10
2022-12-17T02:00:14.456Z,2.10
2022-12-17T02:01:34.866Z,2.10
2022-12-17T02:02:55.537Z,2.10
2022-12-17T02:04:16.088Z,2.10
2022-12-17T02:05:38.768Z,2.10
2022-12-17T02:07:08.778Z,2.10
2022-12-17T02:08:40.796Z,2.10
2022-12-17T02:10:05.914Z,2.10
2022-12-17T02:11:34.040Z,2.00
2022-12-17T02:12:57.302Z,2.00
2022-12-17T02:14:24.275Z,1.80
2022-12-17T02:15:51.048Z,1.90
2022-12-17T02:17:17.922Z,1.90
2022-12-17T02:18:48.687Z,1.90
2022-12-17T02:20:20.707Z,2.00
2022-12-17T02:21:43.369Z,1.90
2022-12-17T02:23:15.180Z,2.10
2022-12-17T02:24:44.167Z,2.00
2022-12-17T02:26:10.556Z,1.90
2022-12-17T02:27:33.744Z,1.90
2022-12-17T02:28:56.679Z,1.80
2022-12-17T02:30:21.506Z,1.90
2022-12-17T02:31:42.873Z,2.10
2022-12-17T02:33:05.360Z,2.00
2022-12-17T02:34:25.942Z,2.00
2022-12-17T02:35:49.925Z,2.00
2022-12-17T02:37:10.358Z,2.10
2022-12-17T02:38:38.918Z,2.10
2022-12-17T02:39:59.970Z,2.00
2022-12-17T02:41:22.735Z,2.00
2022-12-17T02:42:46.508Z,2.00
2022-12-17T02:44:07.504Z,2.10
2022-12-17T02:45:28.469Z,2.00
2022-12-17T02:46:54.544Z,1.90
2022-12-17T02:48:15.481Z,2.00
2022-12-17T02:49:36.137Z,2.00
2022-12-17T02:50:58.084Z,2.00
2022-12-17T02:52:18.442Z,2.00
2022-12-17T02:53:39.440Z,1.90
2022-12-17T02:55:00.340Z,1.90
2022-12-17T02:56:20.952Z,1.90
2022-12-17T02:57:43.967Z,1.90
2022-12-17T02:59:06.692Z,1.90
2022-12-17T03:00:28.117Z,1.80
2022-12-17T03:01:48.748Z,1.90
2022-12-17T03:03:09.573Z,2.00
2022-12-17T03:04:30.622Z,2.00
2022-12-17T03:05:51.107Z,2.00
2022-12-17T03:07:11.651Z,2.00
2022-12-17T03:08:32.649Z,2.00
2022-12-17T03:09:53.213Z,2.00
2022-12-17T03:11:13.807Z,2.00
2022-12-17T03:12:33.999Z,2.00
2022-12-17T03:13:54.463Z,2.00
2022-12-17T03:15:16.175Z,1.90
2022-12-17T03:16:38.159Z,1.90
2022-12-17T03:17:58.932Z,1.90
2022-12-17T03:19:24.852Z,1.80
2022-12-17T03:20:45.141Z,1.80
2022-12-17T03:22:04.916Z,1.80
2022-12-17T03:23:28.688Z,1.80
2022-12-17T03:24:49.256Z,1.80
2022-12-17T03:26:09.481Z,1.90
2022-12-17T03:27:30.043Z,1.90
2022-12-17T03:28:50.620Z,2.00
2022-12-17T03:30:11.064Z,1.90
2022-12-17T03:31:32.798Z,1.90
2022-12-17T03:32:53.003Z,1.90
2022-12-17T03:34:28.237Z,2.00
2022-12-17T03:35:48.520Z,2.00
2022-12-17T03:37:08.832Z,2.10
2022-12-17T03:38:31.129Z,1.90
2022-12-17T03:39:51.351Z,1.90
2022-12-17T03:41:11.809Z,1.90
2022-12-17T03:42:32.198Z,2.00
2022-12-17T03:43:52.664Z,2.00
2022-12-17T03:45:13.297Z,2.00
2022-12-17T03:46:34.992Z,2.00
2022-12-17T03:47:55.260Z,2.00
2022-12-17T03:49:15.729Z,1.90
2022-12-17T03:50:36.066Z,2.00
2022-12-17T03:52:11.130Z,2.20
2022-12-17T03:53:31.316Z,2.10
2022-12-17T03:54:51.553Z,2.00
2022-12-17T03:56:11.915Z,2.00
2022-12-17T03:57:32.373Z,1.90
2022-12-17T03:58:52.985Z,1.90
2022-12-17T04:00:13.508Z,1.80
2022-12-17T04:01:35.143Z,1.90
2022-12-17T04:02:55.763Z,2.00
2022-12-17T04:04:16.311Z,1.90
2022-12-17T04:05:36.861Z,1.80
2022-12-17T04:06:57.443Z,1.80
2022-12-17T04:08:17.832Z,1.80
2022-12-17T04:09:38.395Z,1.90
2022-12-17T04:10:59.022Z,2.00
2022-12-17T04:12:19.691Z,1.90
2022-12-17T04:13:41.245Z,1.90
2022-12-17T04:15:01.728Z,2.00
2022-12-17T04:16:22.101Z,1.90
2022-12-17T04:17:43.721Z,1.90
2022-12-17T04:19:04.365Z,1.90
2022-12-17T04:20:25.956Z,1.90
2022-12-17T04:21:46.457Z,1.90
2022-12-17T04:23:06.933Z,1.90
2022-12-17T04:24:27.384Z,1.90
2022-12-17T04:25:47.878Z,1.90
2022-12-17T04:27:08.561Z,1.90
2022-12-17T04:28:29.091Z,1.80
2022-12-17T04:29:49.636Z,1.90
2022-12-17T04:31:10.095Z,1.80
2022-12-17T04:32:35.082Z,1.80
2022-12-17T04:33:56.887Z,1.90
2022-12-17T04:35:17.376Z,1.80
2022-12-17T04:36:37.984Z,1.80
2022-12-17T04:38:12.979Z,1.80
2022-12-17T04:39:33.335Z,1.60
2022-12-17T04:40:53.580Z,1.60
2022-12-17T04:42:13.959Z,1.60
2022-12-17T04:43:34.647Z,1.60
2022-12-17T04:44:55.284Z,1.70
2022-12-17T04:46:16.099Z,1.70
2022-12-17T04:47:36.573Z,1.60
2022-12-17T04:48:58.760Z,1.70
2022-12-17T04:50:19.346Z,1.70
2022-12-17T04:51:39.927Z,1.70
2022-12-17T04:53:00.501Z,1.70
2022-12-17T04:54:21.029Z,1.70
2022-12-17T04:55:41.524Z,1.80
2022-12-17T04:57:02.138Z,1.80
2022-12-17T04:58:23.529Z,1.80
2022-12-17T04:59:43.936Z,1.90
2022-12-17T05:01:04.766Z,1.90
2022-12-17T05:02:25.171Z,1.80
2022-12-17T05:03:42.143Z,1.80
2022-12-17T05:05:03.734Z,1.80
2022-12-17T05:06:30.032Z,1.80
2022-12-17T05:07:50.253Z,1.80
2022-12-17T05:09:07.048Z,1.80
2022-12-17T05:10:27.707Z,1.80
2022-12-17T05:11:47.920Z,1.80
2022-12-17T05:13:15.453Z,1.70
2022-12-17T05:14:36.273Z,1.70
2022-12-17T05:15:56.949Z,1.80
2022-12-17T05:17:17.171Z,1.90
2022-12-17T05:18:37.708Z,1.90
2022-12-17T05:19:58.208Z,2.00
2022-12-17T05:21:19.949Z,1.90
2022-12-17T05:22:40.522Z,1.90
2022-12-17T05:24:01.104Z,1.80
2022-12-17T05:25:21.478Z,1.80
2022-12-17T05:26:43.954Z,1.80
2022-12-17T05:28:05.165Z,1.80
2022-12-17T05:29:26.544Z,1.70
2022-12-17T05:30:46.977Z,1.70
2022-12-17T05:32:08.251Z,1.70
2022-12-17T05:33:28.808Z,1.70
2022-12-17T05:34:49.072Z,1.70
2022-12-17T05:36:24.162Z,1.70
2022-12-17T05:37:46.218Z,1.70
2022-12-17T05:39:06.978Z,1.70
2022-12-17T05:40:28.253Z,1.80
2022-12-17T05:41:48.629Z,1.70
2022-12-17T05:43:16.640Z,1.70
2022-12-17T05:44:51.660Z,1.60
2022-12-17T05:46:11.950Z,1.80
2022-12-17T05:47:34.512Z,1.70
2022-12-17T05:48:55.376Z,1.70
2022-12-17T05:50:15.611Z,1.70
2022-12-17T05:51:38.839Z,1.70
2022-12-17T05:53:00.753Z,1.80
2022-12-17T05:54:21.234Z,1.70
2022-12-17T05:55:41.848Z,1.60
2022-12-17T05:57:02.391Z,1.70
2022-12-17T05:58:23.615Z,1.50
2022-12-17T05:59:58.665Z,1.50
2022-12-17T06:01:21.052Z,1.60
2022-12-17T06:02:41.914Z,1.60
2022-12-17T06:04:02.704Z,1.70
2022-12-17T06:05:24.215Z,1.60
2022-12-17T06:06:44.755Z,1.60
2022-12-17T06:08:11.639Z,1.80
2022-12-17T06:09:31.970Z,1.80
2022-12-17T06:10:52.620Z,1.80
2022-12-17T06:12:13.020Z,1.40
2022-12-17T06:13:33.638Z,1.60
2022-12-17T06:14:54.147Z,1.50
2022-12-17T06:16:14.740Z,1.60
2022-12-17T06:17:35.223Z,1.50
2022-12-17T06:18:56.241Z,1.60
2022-12-17T06:20:16.752Z,1.30
2022-12-17T06:21:37.233Z,0.30
2022-12-17T06:22:57.732Z,0.60
2022-12-17T06:24:19.512Z,0.70
2022-12-17T06:25:39.992Z,0.50
2022-12-17T06:27:00.479Z,0.60
2022-12-17T06:28:21.233Z,0.50
2022-12-17T06:29:41.702Z,-0.50
2022-12-17T06:31:02.103Z,-0.90
2022-12-17T06:32:22.840Z,-1.10
2022-12-17T06:33:43.336Z,-1.10
2022-12-17T06:35:03.888Z,-0.50
2022-12-17T06:36:24.756Z,0.00
2022-12-17T06:37:45.204Z,0.30
2022-12-17T06:39:05.558Z,0.50
2022-12-17T06:40:29.321Z,0.70
2022-12-17T06:41:50.056Z,0.80
2022-12-17T06:43:14.759Z,0.90
2022-12-17T06:44:35.168Z,0.80
2022-12-17T06:45:55.740Z,1.00
2022-12-17T06:47:16.238Z,1.00
2022-12-17T06:48:36.735Z,1.00
2022-12-17T06:50:01.237Z,0.60
2022-12-17T06:51:22.085Z,0.50
2022-12-17T06:52:42.575Z,0.50
2022-12-17T06:54:03.007Z,0.60
2022-12-17T06:55:23.799Z,0.60
2022-12-17T06:56:45.305Z,0.60
2022-12-17T06:58:05.706Z,0.80
2022-12-17T06:59:26.175Z,0.90
2022-12-17T07:00:46.928Z,1.00
2022-12-17T07:02:07.408Z,-0.20
2022-12-17T07:03:30.556Z,-1.60
2022-12-17T07:04:50.920Z,-2.20
2022-12-17T07:06:11.520Z,-1.30
2022-12-17T07:07:32.069Z,-0.60
2022-12-17T07:08:52.991Z,-0.20
2022-12-17T07:10:14.917Z,0.00
2022-12-17T07:11:35.449Z,0.10
2022-12-17T07:12:56.943Z,0.30
2022-12-17T07:14:17.567Z,0.30
2022-12-17T07:15:34.356Z,0.20
2022-12-17T07:16:54.793Z,0.30
2022-12-17T07:18:16.234Z,0.40
2022-12-17T07:19:36.778Z,0.50
2022-12-17T07:20:57.269Z,0.50
2022-12-17T07:22:17.612Z,0.60
2022-12-17T07:23:34.790Z,0.50
2022-12-17T07:25:07.307Z,0.40
2022-12-17T07:26:36.157Z,0.40
2022-12-17T07:27:58.216Z,0.40
2022-12-17T07:29:18.493Z,0.40
2022-12-17T07:30:39.005Z,0.50
2022-12-17T07:31:59.482Z,0.30
2022-12-17T07:33:20.449Z,0.40
2022-12-17T07:34:40.864Z,0.40
2022-12-17T07:36:01.374Z,0.30
2022-12-17T07:37:21.891Z,0.50
2022-12-17T07:38:42.347Z,0.40
2022-12-17T07:40:02.750Z,0.30
2022-12-17T07:41:23.701Z,0.40
2022-12-17T07:42:44.277Z,0.40
2022-12-17T07:44:06.273Z,0.40
2022-12-17T07:45:28.142Z,0.40
2022-12-17T07:46:48.823Z,0.40
2022-12-17T07:48:12.204Z,0.40
2022-12-17T07:49:32.852Z,0.50
2022-12-17T07:50:53.190Z,0.40
2022-12-17T07:52:13.746Z,0.40
2022-12-17T07:53:34.407Z,0.50
2022-12-17T07:54:55.166Z,0.40
2022-12-17T07:56:15.830Z,0.40
2022-12-17T07:57:36.359Z,0.40
2022-12-17T07:59:11.445Z,0.40
2022-12-17T08:00:33.811Z,0.40
2022-12-17T08:01:54.304Z,0.40
2022-12-17T08:03:18.896Z,0.50
2022-12-17T08:04:39.439Z,0.50
2022-12-17T08:06:00.092Z,0.30
2022-12-17T08:07:20.332Z,0.40
2022-12-17T08:08:40.782Z,0.50
2022-12-17T08:10:01.475Z,0.50
2022-12-17T08:11:21.986Z,0.40
2022-12-17T08:12:42.574Z,0.40
2022-12-17T08:14:03.345Z,0.30
2022-12-17T08:15:25.008Z,0.30
2022-12-17T08:16:47.295Z,0.30
2022-12-17T08:18:08.072Z,0.50
2022-12-17T08:19:31.445Z,0.40
2022-12-17T08:20:51.940Z,0.50
2022-12-17T08:22:12.198Z,0.40
2022-12-17T08:23:32.855Z,0.40
2022-12-17T08:24:53.341Z,-1.00
2022-12-17T08:26:13.885Z,-0.70
2022-12-17T08:27:34.549Z,-0.30
2022-12-17T08:28:55.130Z,0.10
2022-12-17T08:30:15.619Z,0.20
2022-12-17T08:31:36.088Z,0.30
2022-12-17T08:32:57.817Z,0.40
2022-12-17T08:34:18.366Z,0.50
2022-12-17T08:35:38.904Z,0.60
2022-12-17T08:36:59.352Z,0.40
2022-12-17T08:38:20.700Z,0.40
2022-12-17T08:39:41.284Z,0.40
2022-12-17T08:41:02.107Z,0.50
2022-12-17T08:42:22.948Z,0.60
2022-12-17T08:43:43.392Z,0.60
2022-12-17T08:45:03.697Z,0.60
2022-12-17T08:46:24.342Z,0.70
2022-12-17T08:47:44.508Z,0.70
2022-12-17T08:49:06.173Z,0.60
2022-12-17T08:50:27.556Z,0.80
2022-12-17T08:51:48.927Z,0.80
2022-12-17T08:53:16.461Z,0.90
2022-12-17T08:54:36.916Z,0.80
2022-12-17T08:55:57.428Z,0.90
2022-12-17T08:57:30.581Z,0.90
2022-12-17T08:58:57.215Z,1.00
2022-12-17T09:00:19.687Z,1.00
2022-12-17T09:01:40.384Z,1.10
2022-12-17T09:03:00.769Z,1.10
2022-12-17T09:04:22.831Z,1.10
2022-12-17T09:05:43.207Z,1.10
2022-12-17T09:07:03.408Z,1.10
2022-12-17T09:08:25.493Z,1.00
2022-12-17T09:09:46.108Z,1.00
2022-12-17T09:11:06.409Z,1.10
2022-12-17T09:12:26.900Z,1.00
2022-12-17T09:13:47.236Z,1.10
2022-12-17T09:15:07.787Z,1.10
2022-12-17T09:16:28.324Z,1.10
2022-12-17T09:17:48.928Z,1.00
2022-12-17T09:19:09.396Z,1.10
2022-12-17T09:20:31.372Z,1.10
2022-12-17T09:21:51.966Z,1.10
2022-12-17T09:23:12.456Z,1.30
2022-12-17T09:24:33.158Z,1.20
2022-12-17T09:25:58.113Z,1.30
2022-12-17T09:27:18.603Z,1.20
2022-12-17T09:28:39.035Z,1.20
2022-12-17T09:29:59.618Z,1.20
2022-12-17T09:31:20.280Z,1.20
2022-12-17T09:32:40.860Z,1.30
2022-12-17T09:34:01.268Z,1.20
2022-12-17T09:35:21.812Z,1.30
2022-12-17T09:36:49.514Z,1.30
2022-12-17T09:38:11.901Z,1.30
2022-12-17T09:39:32.386Z,1.30
2022-12-17T09:40:52.657Z,1.40
2022-12-17T09:42:20.663Z,1.40
2022-12-17T09:43:49.470Z,1.40
2022-12-17T09:45:16.605Z,1.50
2022-12-17T09:46:44.670Z,1.50
2022-12-17T09:48:16.678Z,1.50
2022-12-17T09:49:39.548Z,1.50
2022-12-17T09:51:00.180Z,1.50
2022-12-17T09:52:36.428Z,1.60
2022-12-17T09:54:02.680Z,1.50
2022-12-17T09:55:38.475Z,1.60
2022-12-17T09:57:01.910Z,1.70
2022-12-17T09:58:22.965Z,1.80
2022-12-17T09:59:45.308Z,1.70
2022-12-17T10:01:07.184Z,1.80
2022-12-17T10:02:32.534Z,1.80
2022-12-17T10:03:54.359Z,1.70
2022-12-17T10:05:15.813Z,1.60
2022-12-17T10:06:38.661Z,1.60
2022-12-17T10:08:01.024Z,1.80
2022-12-17T10:09:29.567Z,1.80
2022-12-17T10:10:51.462Z,1.80
2022-12-17T10:12:11.981Z,1.70
2022-12-17T10:13:34.889Z,1.80
2022-12-17T10:14:55.449Z,1.90
2022-12-17T10:16:16.020Z,1.90
2022-12-17T10:17:38.970Z,1.90
2022-12-17T10:18:59.817Z,1.90
2022-12-17T10:20:21.457Z,2.00
2022-12-17T10:21:42.000Z,1.90
2022-12-17T10:23:05.960Z,2.00
2022-12-17T10:24:27.567Z,2.00
2022-12-17T10:25:48.533Z,2.10
2022-12-17T10:27:09.174Z,2.10
2022-12-17T10:28:31.793Z,2.10
2022-12-17T10:29:53.444Z,2.20
2022-12-17T10:31:15.270Z,2.20
2022-12-17T10:32:37.112Z,2.20
2022-12-17T10:33:59.056Z,2.20
2022-12-17T10:35:25.379Z,2.30
2022-12-17T10:36:43.508Z,2.20
2022-12-17T10:38:05.387Z,2.30
2022-12-17T10:39:31.270Z,2.20
2022-12-17T10:40:52.613Z,2.30
2022-12-17T10:42:16.015Z,2.20
2022-12-17T10:43:48.176Z,2.20
2022-12-17T10:45:08.726Z,2.20
2022-12-17T10:46:31.638Z,2.20
2022-12-17T10:47:52.845Z,2.30
2022-12-17T10:49:23.302Z,2.30
2022-12-17T10:50:46.205Z,2.30
2022-12-17T10:52:07.170Z,2.30
2022-12-17T10:53:38.719Z,2.20
2022-12-17T10:54:59.628Z,2.30
2022-12-17T10:56:20.047Z,2.30
2022-12-17T10:57:48.225Z,2.30
2022-12-17T10:59:11.324Z,2.40
2022-12-17T11:00:47.570Z,2.30
2022-12-17T11:02:16.544Z,2.40
2022-12-17T11:03:49.558Z,2.40
2022-12-17T11:05:11.302Z,2.40
2022-12-17T11:06:40.409Z,2.40
2022-12-17T11:08:03.288Z,2.40
2022-12-17T11:09:34.984Z,2.20
2022-12-17T11:11:00.506Z,1.80
2022-12-17T11:12:30.127Z,1.90
2022-12-17T11:13:55.106Z,2.10
2022-12-17T11:15:25.894Z,1.80
2022-12-17T11:16:50.183Z,2.00
2022-12-17T11:18:11.828Z,1.60
2022-12-17T11:19:48.123Z,1.90
2022-12-17T11:21:13.515Z,1.90
2022-12-17T11:22:48.067Z,2.10
2022-12-17T11:24:10.577Z,2.20
2022-12-17T11:25:43.608Z,2.30
2022-12-17T11:27:07.346Z,2.30
2022-12-17T11:28:35.433Z,2.40
2022-12-17T11:29:55.865Z,2.40
2022-12-17T11:31:38.000Z,2.40
2022-12-17T11:33:13.483Z,2.40
2022-12-17T11:34:43.363Z,2.50
2022-12-17T11:36:10.218Z,2.40
2022-12-17T11:37:36.191Z,2.40
2022-12-17T11:38:58.138Z,2.40
2022-12-17T11:40:30.708Z,2.50
2022-12-17T11:42:08.036Z,2.40
2022-12-17T11:43:39.595Z,2.50
2022-12-17T11:45:09.659Z,2.50
2022-12-17T11:46:41.856Z,2.60
2022-12-17T11:48:09.079Z,2.60
2022-12-17T11:49:40.121Z,2.50
2022-12-17T11:51:07.103Z,2.60
2022-12-17T11:52:32.004Z,2.60
2022-12-17T11:54:07.444Z,2.70
2022-12-17T11:55:38.165Z,2.70
2022-12-17T11:57:03.913Z,2.70
2022-12-17T11:58:25.250Z,2.60
2022-12-17T11:59:53.459Z,2.60
2022-12-17T12:01:28.014Z,2.60
2022-12-17T12:03:00.117Z,2.60
2022-12-17T12:04:35.522Z,2.70
2022-12-17T12:06:04.138Z,2.90
2022-12-17T12:07:34.647Z,2.80
2022-12-17T12:09:01.122Z,2.80
2022-12-17T12:10:25.195Z,2.70
2022-12-17T12:11:51.663Z,2.70
2022-12-17T12:13:22.829Z,2.70
2022-12-17T12:14:52.511Z,2.70
2022-12-17T12:16:22.712Z,2.80
2022-12-17T12:17:56.670Z,2.80
2022-12-17T12:19:24.417Z,2.70
2022-12-17T12:21:07.592Z,2.80
2022-12-17T12:22:36.478Z,2.80
2022-12-17T12:24:06.528Z,2.80
2022-12-17T12:25:51.820Z,2.80
2022-12-17T12:27:23.272Z,2.70
2022-12-17T12:28:51.820Z,2.80
2022-12-17T12:30:20.802Z,2.80
2022-12-17T12:31:48.275Z,2.70
2022-12-17T12:33:19.182Z,2.80
2022-12-17T12:34:44.165Z,2.80
2022-12-17T12:36:05.699Z,2.80
2022-12-17T12:37:31.510Z,2.70
2022-12-17T12:38:58.260Z,2.60
2022-12-17T12:40:26.016Z,2.70
2022-12-17T12:42:00.551Z,2.70
2022-12-17T12:43:24.487Z,2.80
2022-12-17T12:44:55.837Z,2.70
2022-12-17T12:46:21.944Z,2.70
2022-12-17T12:47:49.171Z,2.80
2022-12-17T12:49:15.703Z,2.80
2022-12-17T12:50:41.180Z,2.70
2022-12-17T12:52:16.919Z,2.80
2022-12-17T12:53:38.749Z,2.70
2022-12-17T12:55:12.351Z,2.80
2022-12-17T12:56:46.580Z,2.80
2022-12-17T12:58:17.066Z,2.90
2022-12-17T12:59:46.916Z,3.10
2022-12-17T13:01:12.521Z,3.00
2022-12-17T13:02:45.483Z,3.10
2022-12-17T13:04:11.272Z,3.00
2022-12-17T13:05:35.661Z,3.00
2022-12-17T13:06:43.553Z,3.10
2022-12-17T13:07:45.498Z,3.20
2022-12-17T13:08:50.994Z,3.20
2022-12-17T13:09:55.211Z,3.20
2022-12-17T13:10:58.191Z,3.20
2022-12-17T13:12:18.952Z,3.20
2022-12-17T13:13:34.493Z,3.10
2022-12-17T13:14:49.963Z,3.20
2022-12-17T13:15:57.530Z,3.10
2022-12-17T13:17:04.476Z,3.20
2022-12-17T13:18:21.724Z,3.10
2022-12-17T13:19:35.908Z,3.10
2022-12-17T13:20:39.069Z,3.10
2022-12-17T13:21:41.008Z,3.10
2022-12-17T13:22:52.361Z,3.10
2022-12-17T13:23:54.380Z,3.10
2022-12-17T13:25:10.471Z,3.00
2022-12-17T13:26:32.059Z,2.90
2022-12-17T13:27:40.967Z,2.90
2022-12-17T13:28:49.063Z,2.80
2022-12-17T13:29:53.482Z,2.90
2022-12-17T13:31:03.778Z,3.00
2022-12-17T13:32:17.703Z,3.00
2022-12-17T13:33:29.783Z,3.00
2022-12-17T13:34:43.432Z,2.90
2022-12-17T13:35:55.525Z,2.80
2022-12-17T13:37:04.834Z,2.80
2022-12-17T13:38:15.412Z,2.80
2022-12-17T13:39:34.478Z,2.80
2022-12-17T13:40:43.714Z,2.80
2022-12-17T13:41:46.688Z,2.90
2022-12-17T13:42:49.251Z,2.90
2022-12-17T13:43:54.149Z,3.00
2022-12-17T13:44:58.093Z,3.00
2022-12-17T13:46:01.300Z,3.00
2022-12-17T13:47:04.602Z,2.90
2022-12-17T13:48:16.993Z,3.00
2022-12-17T13:49:21.857Z,2.90
2022-12-17T13:50:36.190Z,3.00
2022-12-17T13:51:38.789Z,3.00
2022-12-17T13:52:41.728Z,3.00
2022-12-17T13:53:54.026Z,3.00
2022-12-17T13:55:09.143Z,3.00
2022-12-17T13:56:11.075Z,2.90
2022-12-17T13:57:16.804Z,2.90
2022-12-17T13:58:26.395Z,2.90
2022-12-17T13:59:29.827Z,2.90
2022-12-17T14:00:34.120Z,2.90
2022-12-17T14:01:45.070Z,2.90
2022-12-17T14:02:48.888Z,3.00
2022-12-17T14:04:08.226Z,2.90
2022-12-17T14:05:28.261Z,2.90
2022-12-17T14:06:34.869Z,2.80
2022-12-17T14:07:40.449Z,2.80
2022-12-17T14:08:43.406Z,2.80
2022-12-17T14:09:46.504Z,2.80
2022-12-17T14:10:52.645Z,2.80
2022-12-17T14:12:13.805Z,2.70
2022-12-17T14:13:18.011Z,2.60
2022-12-17T14:14:28.824Z,2.60
2022-12-17T14:15:33.279Z,2.60
2022-12-17T14:16:35.334Z,2.60
2022-12-17T14:17:43.447Z,2.60
2022-12-17T14:18:49.278Z,2.50
2022-12-17T14:19:58.905Z,2.60
2022-12-17T14:21:01.036Z,2.60
2022-12-17T14:22:04.149Z,2.50
2022-12-17T14:23:12.733Z,2.50
2022-12-17T14:24:16.222Z,2.60
2022-12-17T14:25:20.699Z,2.50
2022-12-17T14:26:23.872Z,2.50
2022-12-17T14:27:27.538Z,2.40
2022-12-17T14:28:33.634Z,2.40
2022-12-17T14:29:46.532Z,2.00
2022-12-17T14:31:25.137Z,2.20
2022-12-17T14:32:23.771Z,2.20
2022-12-17T14:33:28.985Z,2.30
2022-12-17T14:34:42.233Z,2.30
2022-12-17T14:35:54.457Z,2.30
2022-12-17T14:37:01.616Z,2.20
2022-12-17T14:38:04.874Z,2.20
2022-12-17T14:39:18.335Z,2.20
2022-12-17T14:40:21.061Z,2.20
2022-12-17T14:41:42.129Z,2.20
2022-12-17T14:42:45.124Z,2.20
2022-12-17T14:43:54.535Z,2.20
2022-12-17T14:45:00.139Z,2.20
2022-12-17T14:46:21.616Z,2.10
2022-12-17T14:47:26.972Z,2.10
2022-12-17T14:48:48.980Z,2.00
2022-12-17T14:50:04.422Z,2.00
2022-12-17T14:51:06.448Z,2.00
2022-12-17T14:52:15.693Z,1.90
2022-12-17T14:53:28.830Z,1.90
2022-12-17T14:54:31.335Z,1.90
2022-12-17T14:55:37.134Z,1.90
2022-12-17T14:56:40.117Z,1.90
2022-12-17T14:57:43.117Z,1.80
2022-12-17T14:58:46.105Z,1.80
2022-12-17T14:59:49.179Z,1.80
2022-12-17T15:01:07.477Z,1.80
2022-12-17T15:02:23.647Z,1.80
2022-12-17T15:03:28.653Z,1.80
2022-12-17T15:04:32.355Z,1.70
2022-12-17T15:05:36.375Z,1.70
2022-12-17T15:06:38.532Z,1.80
2022-12-17T15:07:41.761Z,1.70
2022-12-17T15:08:46.980Z,1.70
2022-12-17T15:09:49.937Z,1.60
2022-12-17T15:10:52.033Z,1.60
2022-12-17T15:11:55.027Z,1.60
2022-12-17T15:12:57.673Z,1.60
2022-12-17T15:14:00.605Z,1.70
2022-12-17T15:15:02.597Z,1.60
2022-12-17T15:16:06.343Z,1.50
2022-12-17T15:17:08.307Z,1.50
2022-12-17T15:18:12.638Z,1.40
2022-12-17T15:19:14.600Z,1.40
2022-12-17T15:21:05.323Z,1.50
2022-12-17T15:22:10.628Z,1.40
2022-12-17T15:23:16.826Z,1.50
2022-12-17T15:24:21.393Z,1.50
2022-12-17T15:25:23.349Z,1.60
2022-12-17T15:26:26.402Z,1.60
2022-12-17T15:27:28.373Z,1.50
2022-12-17T15:28:31.312Z,1.50
2022-12-17T15:29:34.631Z,1.50
2022-12-17T15:30:37.663Z,1.40
2022-12-17T15:31:40.733Z,1.40
2022-12-17T15:32:43.560Z,1.40
2022-12-17T15:33:47.889Z,1.30
2022-12-17T15:34:50.571Z,1.20
2022-12-17T15:35:53.569Z,1.30
2022-12-17T15:36:55.528Z,1.30
2022-12-17T15:37:58.427Z,1.00
2022-12-17T15:39:01.553Z,0.90
2022-12-17T15:40:03.712Z,0.90
2022-12-17T15:41:27.273Z,0.90
2022-12-17T15:42:44.061Z,0.90
2022-12-17T15:43:45.951Z,0.90
2022-12-17T15:44:48.857Z,1.00
2022-12-17T15:45:52.080Z,0.90
2022-12-17T15:46:55.116Z,1.00
2022-12-17T15:47:57.086Z,0.90
2022-12-17T15:49:02.412Z,0.90
2022-12-17T15:50:05.375Z,0.90
2022-12-17T15:51:08.713Z,0.90
2022-12-17T15:52:11.036Z,0.90
2022-12-17T15:53:14.085Z,0.90
2022-12-17T15:54:16.011Z,0.90
2022-12-17T15:55:18.951Z,0.90
2022-12-17T15:56:23.533Z,0.90
2022-12-17T15:57:26.588Z,0.90
2022-12-17T15:58:28.817Z,0.80
2022-12-17T15:59:33.556Z,0.80
2022-12-17T16:00:35.612Z,0.80
2022-12-17T16:01:38.623Z,0.80
2022-12-17T16:02:41.020Z,0.80
2022-12-17T16:03:44.207Z,0.70
2022-12-17T16:04:48.286Z,0.70
2022-12-17T16:05:51.227Z,0.80
2022-12-17T16:06:53.265Z,0.70
2022-12-17T16:07:59.036Z,0.60
2022-12-17T16:09:01.177Z,0.60
2022-12-17T16:10:05.539Z,0.60
2022-12-17T16:11:09.724Z,0.70
2022-12-17T16:12:11.688Z,0.80
2022-12-17T16:13:16.092Z,0.80
2022-12-17T16:14:17.992Z,0.80
2022-12-17T16:15:20.882Z,0.80
2022-12-17T16:16:23.734Z,0.70
2022-12-17T16:17:26.715Z,0.70
2022-12-17T16:18:30.136Z,0.60
2022-12-17T16:19:33.111Z,0.60
2022-12-17T16:20:37.442Z,0.60
2022-12-17T16:21:44.970Z,0.50
2022-12-17T16:22:49.566Z,0.50
2022-12-17T16:23:51.573Z,0.50
2022-12-17T16:24:54.921Z,0.40
2022-12-17T16:25:58.089Z,0.50
2022-12-17T16:27:04.691Z,0.40
2022-12-17T16:28:07.875Z,0.40
2022-12-17T16:29:10.026Z,0.40
2022-12-17T16:30:14.526Z,0.40
2022-12-17T16:31:17.147Z,0.30
2022-12-17T16:32:20.131Z,0.40
2022-12-17T16:33:22.077Z,0.30
2022-12-17T16:34:25.078Z,0.30
2022-12-17T16:35:28.659Z,0.30
2022-12-17T16:36:34.012Z,0.30
2022-12-17T16:37:37.026Z,0.30
2022-12-17T16:38:44.236Z,0.30
2022-12-17T16:39:47.184Z,0.30
2022-12-17T16:40:49.157Z,0.30
2022-12-17T16:41:52.088Z,0.30
2022-12-17T16:42:54.039Z,0.00
2022-12-17T16:43:56.968Z,-0.70
2022-12-17T16:44:59.900Z,-0.70
2022-12-17T16:46:04.484Z,-0.60
2022-12-17T16:47:09.629Z,-0.40
2022-12-17T16:48:11.548Z,-0.10
2022-12-17T16:49:18.018Z,0.00
2022-12-17T16:50:19.989Z,0.00
2022-12-17T16:51:28.951Z,0.10
2022-12-17T16:52:34.782Z,0.10
2022-12-17T16:53:36.730Z,0.20
2022-12-17T16:54:39.665Z,0.10
2022-12-17T16:55:42.547Z,0.20
2022-12-17T16:56:46.364Z,0.20
2022-12-17T16:57:48.386Z,0.20
2022-12-17T16:58:52.537Z,0.20
2022-12-17T16:59:55.451Z,0.20
2022-12-17T17:00:57.355Z,0.20
2022-12-17T17:02:00.322Z,0.10
2022-12-17T17:03:02.848Z,0.10
2022-12-17T17:04:07.217Z,0.10
2022-12-17T17:05:10.269Z,0.10
2022-12-17T17:06:12.221Z,0.10
2022-12-17T17:07:15.184Z,0.20
2022-12-17T17:08:18.497Z,0.20
2022-12-17T17:09:22.587Z,0.20
2022-12-17T17:10:24.547Z,0.20
2022-12-17T17:11:27.472Z,0.10
2022-12-17T17:12:30.172Z,0.10
2022-12-17T17:13:33.139Z,0.20
2022-12-17T17:14:36.224Z,0.10
2022-12-17T17:15:38.227Z,0.10
2022-12-17T17:16:41.229Z,0.00
2022-12-17T17:17:54.375Z,0.00
2022-12-17T17:18:59.117Z,-0.10
2022-12-17T17:20:01.021Z,-0.10